sensor_id;sensor_type;location;lat;lon;timestamp;temperature;humidity
32907;DHT22;19259;51.590;5.320;2022-07-29T00:01:39;17.60;99.90
32907;DHT22;19259;51.590;5.320;2022-07-29T00:04:07;17.60;99.90
32907;DHT22;19259;51.590;5.320;2022-07-29T00:06:34;17.50;99.90
32907;DHT22;19259;51.590;5.320;2022-07-29T00:09:02;17.50;99.90
32907;DHT22;19259;51.590;5.320;2022-07-29T00:11:30;17.50;99.90
32907;DHT22;19259;51.590;5.320;2022-07-29T00:13:57;17.50;99.90
32907;DHT22;19259;51.590;5.320;2022-07-29T00:16:25;17.50;99.90
32907;DHT22;19259;51.590;5.320;2022-07-29T00:18:53;17.60;99.90
32907;DHT22;19259;51.590;5.320;2022-07-29T00:21:20;17.60;99.90
32907;DHT22;19259;51.590;5.320;2022-07-29T00:23:48;17.60;99.90
32907;DHT22;19259;51.590;5.320;2022-07-29T00:26:15;17.60;99.90
32907;DHT22;19259;51.590;5.320;2022-07-29T00:28:43;17.50;99.90
32907;DHT22;19259;51.590;5.320;2022-07-29T00:31:10;17.50;99.90
32907;DHT22;19259;51.590;5.320;2022-07-29T00:33:38;17.50;99.90
32907;DHT22;19259;51.590;5.320;2022-07-29T00:36:05;17.50;99.90
32907;DHT22;19259;51.590;5.320;2022-07-29T00:38:33;17.50;99.90
32907;DHT22;19259;51.590;5.320;2022-07-29T00:41:01;17.50;99.90
32907;DHT22;19259;51.590;5.320;2022-07-29T00:43:28;17.40;99.90
32907;DHT22;19259;51.590;5.320;2022-07-29T00:45:56;17.50;99.90
32907;DHT22;19259;51.590;5.320;2022-07-29T00:48:23;17.50;99.90
32907;DHT22;19259;51.590;5.320;2022-07-29T00:50:51;17.40;99.90
32907;DHT22;19259;51.590;5.320;2022-07-29T00:53:19;17.50;99.90
32907;DHT22;19259;51.590;5.320;2022-07-29T00:55:52;17.50;99.90
32907;DHT22;19259;51.590;5.320;2022-07-29T00:58:16;17.60;99.90
32907;DHT22;19259;51.590;5.320;2022-07-29T01:00:44;17.80;99.90
32907;DHT22;19259;51.590;5.320;2022-07-29T01:03:12;17.90;99.90
32907;DHT22;19259;51.590;5.320;2022-07-29T01:05:41;17.80;99.90
32907;DHT22;19259;51.590;5.320;2022-07-29T01:08:12;17.70;99.90
32907;DHT22;19259;51.590;5.320;2022-07-29T01:10:41;17.80;99.90
32907;DHT22;19259;51.590;5.320;2022-07-29T01:13:11;17.90;99.90
32907;DHT22;19259;51.590;5.320;2022-07-29T01:15:46;17.90;99.90
32907;DHT22;19259;51.590;5.320;2022-07-29T01:18:24;17.80;99.90
32907;DHT22;19259;51.590;5.320;2022-07-29T01:28:52;17.80;99.90
32907;DHT22;19259;51.590;5.320;2022-07-29T01:31:19;17.60;99.90
32907;DHT22;19259;51.590;5.320;2022-07-29T01:33:50;17.50;99.90
32907;DHT22;19259;51.590;5.320;2022-07-29T01:39:12;17.30;99.90
32907;DHT22;19259;51.590;5.320;2022-07-29T01:41:38;17.20;99.90
32907;DHT22;19259;51.590;5.320;2022-07-29T01:44:15;17.10;99.90
32907;DHT22;19259;51.590;5.320;2022-07-29T01:46:46;16.90;99.90
32907;DHT22;19259;51.590;5.320;2022-07-29T01:49:20;16.90;99.90
32907;DHT22;19259;51.590;5.320;2022-07-29T01:51:58;16.80;99.90
32907;DHT22;19259;51.590;5.320;2022-07-29T01:54:42;16.70;99.90
32907;DHT22;19259;51.590;5.320;2022-07-29T01:57:14;16.80;99.90
32907;DHT22;19259;51.590;5.320;2022-07-29T01:59:45;16.80;99.90
32907;DHT22;19259;51.590;5.320;2022-07-29T02:02:15;16.80;99.90
32907;DHT22;19259;51.590;5.320;2022-07-29T02:04:48;16.80;99.90
32907;DHT22;19259;51.590;5.320;2022-07-29T02:07:19;16.70;99.90
32907;DHT22;19259;51.590;5.320;2022-07-29T02:09:47;16.80;99.90
32907;DHT22;19259;51.590;5.320;2022-07-29T02:12:18;16.80;99.90
32907;DHT22;19259;51.590;5.320;2022-07-29T02:14:49;16.90;99.90
32907;DHT22;19259;51.590;5.320;2022-07-29T02:17:26;16.90;99.90
32907;DHT22;19259;51.590;5.320;2022-07-29T02:19:56;17.00;99.90
32907;DHT22;19259;51.590;5.320;2022-07-29T02:22:25;16.90;99.90
32907;DHT22;19259;51.590;5.320;2022-07-29T02:24:54;16.90;99.90
32907;DHT22;19259;51.590;5.320;2022-07-29T02:27:23;17.00;99.90
32907;DHT22;19259;51.590;5.320;2022-07-29T02:29:51;17.00;99.90
32907;DHT22;19259;51.590;5.320;2022-07-29T02:32:21;16.90;99.90
32907;DHT22;19259;51.590;5.320;2022-07-29T02:34:50;16.90;99.90
32907;DHT22;19259;51.590;5.320;2022-07-29T02:37:19;16.90;99.90
32907;DHT22;19259;51.590;5.320;2022-07-29T02:39:48;16.90;99.90
32907;DHT22;19259;51.590;5.320;2022-07-29T02:42:18;17.00;99.90
32907;DHT22;19259;51.590;5.320;2022-07-29T02:44:46;17.10;99.90
32907;DHT22;19259;51.590;5.320;2022-07-29T02:47:18;17.10;99.90
32907;DHT22;19259;51.590;5.320;2022-07-29T02:49:51;17.00;99.90
32907;DHT22;19259;51.590;5.320;2022-07-29T02:52:43;16.80;99.90
32907;DHT22;19259;51.590;5.320;2022-07-29T02:55:17;16.80;99.90
32907;DHT22;19259;51.590;5.320;2022-07-29T03:00:29;16.60;99.90
32907;DHT22;19259;51.590;5.320;2022-07-29T03:03:05;16.60;99.90
32907;DHT22;19259;51.590;5.320;2022-07-29T03:05:28;16.60;99.90
32907;DHT22;19259;51.590;5.320;2022-07-29T03:08:00;16.60;99.90
32907;DHT22;19259;51.590;5.320;2022-07-29T03:10:27;16.50;99.90
32907;DHT22;19259;51.590;5.320;2022-07-29T03:12:56;16.50;99.90
32907;DHT22;19259;51.590;5.320;2022-07-29T03:15:26;16.30;99.90
32907;DHT22;19259;51.590;5.320;2022-07-29T03:17:54;16.30;99.90
32907;DHT22;19259;51.590;5.320;2022-07-29T03:20:22;16.20;99.90
32907;DHT22;19259;51.590;5.320;2022-07-29T03:22:50;16.20;99.90
32907;DHT22;19259;51.590;5.320;2022-07-29T03:25:20;16.30;99.90
32907;DHT22;19259;51.590;5.320;2022-07-29T03:27:48;16.20;99.90
32907;DHT22;19259;51.590;5.320;2022-07-29T03:30:16;16.20;99.90
32907;DHT22;19259;51.590;5.320;2022-07-29T03:32:43;16.20;99.90
32907;DHT22;19259;51.590;5.320;2022-07-29T03:35:12;16.30;99.90
32907;DHT22;19259;51.590;5.320;2022-07-29T03:37:40;16.20;99.90
32907;DHT22;19259;51.590;5.320;2022-07-29T03:40:10;16.20;99.90
32907;DHT22;19259;51.590;5.320;2022-07-29T03:42:39;16.10;99.90
32907;DHT22;19259;51.590;5.320;2022-07-29T03:45:17;16.10;99.90
32907;DHT22;19259;51.590;5.320;2022-07-29T03:47:42;16.00;99.90
32907;DHT22;19259;51.590;5.320;2022-07-29T03:50:11;16.00;99.90
32907;DHT22;19259;51.590;5.320;2022-07-29T03:52:40;15.90;99.90
32907;DHT22;19259;51.590;5.320;2022-07-29T03:55:09;15.90;99.90
32907;DHT22;19259;51.590;5.320;2022-07-29T03:57:37;15.90;99.90
32907;DHT22;19259;51.590;5.320;2022-07-29T04:00:07;15.90;99.90
32907;DHT22;19259;51.590;5.320;2022-07-29T04:02:36;15.80;99.90
32907;DHT22;19259;51.590;5.320;2022-07-29T04:05:05;15.90;99.90
32907;DHT22;19259;51.590;5.320;2022-07-29T04:07:34;15.90;99.90
32907;DHT22;19259;51.590;5.320;2022-07-29T04:10:01;15.80;99.90
32907;DHT22;19259;51.590;5.320;2022-07-29T04:12:29;15.80;99.90
32907;DHT22;19259;51.590;5.320;2022-07-29T04:14:56;15.80;99.90
32907;DHT22;19259;51.590;5.320;2022-07-29T04:17:24;15.80;99.90
32907;DHT22;19259;51.590;5.320;2022-07-29T04:19:54;15.70;99.90
32907;DHT22;19259;51.590;5.320;2022-07-29T04:22:24;15.60;99.90
32907;DHT22;19259;51.590;5.320;2022-07-29T04:24:52;15.60;99.90
32907;DHT22;19259;51.590;5.320;2022-07-29T04:27:19;15.50;99.90
32907;DHT22;19259;51.590;5.320;2022-07-29T04:29:47;15.50;99.90
32907;DHT22;19259;51.590;5.320;2022-07-29T04:32:14;15.40;99.90
32907;DHT22;19259;51.590;5.320;2022-07-29T04:34:45;15.50;99.90
32907;DHT22;19259;51.590;5.320;2022-07-29T04:37:13;15.50;99.90
32907;DHT22;19259;51.590;5.320;2022-07-29T04:39:40;15.60;99.90
32907;DHT22;19259;51.590;5.320;2022-07-29T04:42:08;15.60;99.90
32907;DHT22;19259;51.590;5.320;2022-07-29T04:44:35;15.70;99.90
32907;DHT22;19259;51.590;5.320;2022-07-29T04:47:03;15.60;99.90
32907;DHT22;19259;51.590;5.320;2022-07-29T04:49:30;15.60;99.90
32907;DHT22;19259;51.590;5.320;2022-07-29T04:51:58;15.60;99.90
32907;DHT22;19259;51.590;5.320;2022-07-29T04:54:26;15.60;99.90
32907;DHT22;19259;51.590;5.320;2022-07-29T04:56:53;15.50;99.90
32907;DHT22;19259;51.590;5.320;2022-07-29T04:59:21;15.60;99.90
32907;DHT22;19259;51.590;5.320;2022-07-29T05:01:48;15.70;99.90
32907;DHT22;19259;51.590;5.320;2022-07-29T05:04:16;15.70;99.90
32907;DHT22;19259;51.590;5.320;2022-07-29T05:06:43;15.80;99.90
32907;DHT22;19259;51.590;5.320;2022-07-29T05:09:14;15.70;99.90
32907;DHT22;19259;51.590;5.320;2022-07-29T05:11:42;15.80;99.90
32907;DHT22;19259;51.590;5.320;2022-07-29T05:14:09;15.80;99.90
32907;DHT22;19259;51.590;5.320;2022-07-29T05:16:38;15.80;99.90
32907;DHT22;19259;51.590;5.320;2022-07-29T05:19:06;15.70;99.90
32907;DHT22;19259;51.590;5.320;2022-07-29T05:21:34;15.80;99.90
32907;DHT22;19259;51.590;5.320;2022-07-29T05:24:04;15.70;99.90
32907;DHT22;19259;51.590;5.320;2022-07-29T05:26:31;15.90;99.90
32907;DHT22;19259;51.590;5.320;2022-07-29T05:28:59;16.10;99.90
32907;DHT22;19259;51.590;5.320;2022-07-29T05:31:26;16.20;99.90
32907;DHT22;19259;51.590;5.320;2022-07-29T05:33:54;16.10;99.90
32907;DHT22;19259;51.590;5.320;2022-07-29T05:36:21;16.30;99.90
32907;DHT22;19259;51.590;5.320;2022-07-29T05:38:49;16.40;99.90
32907;DHT22;19259;51.590;5.320;2022-07-29T05:41:19;16.60;99.90
32907;DHT22;19259;51.590;5.320;2022-07-29T05:43:46;16.40;99.90
32907;DHT22;19259;51.590;5.320;2022-07-29T05:46:14;16.40;99.90
32907;DHT22;19259;51.590;5.320;2022-07-29T05:48:41;16.40;99.90
32907;DHT22;19259;51.590;5.320;2022-07-29T05:51:09;16.30;99.90
32907;DHT22;19259;51.590;5.320;2022-07-29T05:53:36;16.20;99.90
32907;DHT22;19259;51.590;5.320;2022-07-29T05:56:04;16.10;99.90
32907;DHT22;19259;51.590;5.320;2022-07-29T05:58:32;16.10;99.90
32907;DHT22;19259;51.590;5.320;2022-07-29T06:01:00;16.10;99.90
32907;DHT22;19259;51.590;5.320;2022-07-29T06:03:28;16.00;99.90
32907;DHT22;19259;51.590;5.320;2022-07-29T06:05:56;16.10;99.90
32907;DHT22;19259;51.590;5.320;2022-07-29T06:08:24;16.00;99.90
32907;DHT22;19259;51.590;5.320;2022-07-29T06:10:51;16.00;99.90
32907;DHT22;19259;51.590;5.320;2022-07-29T06:13:19;16.10;99.90
32907;DHT22;19259;51.590;5.320;2022-07-29T06:15:46;16.10;99.90
32907;DHT22;19259;51.590;5.320;2022-07-29T06:18:14;16.00;99.90
32907;DHT22;19259;51.590;5.320;2022-07-29T06:20:41;16.10;99.90
32907;DHT22;19259;51.590;5.320;2022-07-29T06:23:09;16.10;99.90
32907;DHT22;19259;51.590;5.320;2022-07-29T06:25:36;16.10;99.90
32907;DHT22;19259;51.590;5.320;2022-07-29T06:28:04;16.10;99.90
32907;DHT22;19259;51.590;5.320;2022-07-29T06:30:33;16.10;99.90
32907;DHT22;19259;51.590;5.320;2022-07-29T06:33:00;16.00;99.90
32907;DHT22;19259;51.590;5.320;2022-07-29T06:35:28;16.20;99.90
32907;DHT22;19259;51.590;5.320;2022-07-29T06:37:56;16.30;99.90
32907;DHT22;19259;51.590;5.320;2022-07-29T06:40:23;16.10;99.90
32907;DHT22;19259;51.590;5.320;2022-07-29T06:43:09;16.10;99.90
32907;DHT22;19259;51.590;5.320;2022-07-29T06:45:37;16.20;99.90
32907;DHT22;19259;51.590;5.320;2022-07-29T06:48:06;16.30;99.90
32907;DHT22;19259;51.590;5.320;2022-07-29T06:50:34;16.40;99.90
32907;DHT22;19259;51.590;5.320;2022-07-29T06:53:01;16.50;99.90
32907;DHT22;19259;51.590;5.320;2022-07-29T06:55:29;16.50;99.90
32907;DHT22;19259;51.590;5.320;2022-07-29T06:57:57;16.60;99.90
32907;DHT22;19259;51.590;5.320;2022-07-29T07:00:24;16.60;99.90
32907;DHT22;19259;51.590;5.320;2022-07-29T07:02:52;16.50;99.90
32907;DHT22;19259;51.590;5.320;2022-07-29T07:05:19;16.40;99.90
32907;DHT22;19259;51.590;5.320;2022-07-29T07:07:47;16.50;99.90
32907;DHT22;19259;51.590;5.320;2022-07-29T07:10:14;16.40;99.90
32907;DHT22;19259;51.590;5.320;2022-07-29T07:12:42;16.50;99.90
32907;DHT22;19259;51.590;5.320;2022-07-29T07:15:09;16.60;99.90
32907;DHT22;19259;51.590;5.320;2022-07-29T07:17:40;16.70;99.90
32907;DHT22;19259;51.590;5.320;2022-07-29T07:20:08;16.80;99.90
32907;DHT22;19259;51.590;5.320;2022-07-29T07:22:35;17.00;99.90
32907;DHT22;19259;51.590;5.320;2022-07-29T07:25:03;17.30;99.90
32907;DHT22;19259;51.590;5.320;2022-07-29T07:27:31;17.30;99.90
32907;DHT22;19259;51.590;5.320;2022-07-29T07:29:58;17.00;99.90
32907;DHT22;19259;51.590;5.320;2022-07-29T07:32:26;17.00;99.90
32907;DHT22;19259;51.590;5.320;2022-07-29T07:34:56;16.90;99.90
32907;DHT22;19259;51.590;5.320;2022-07-29T07:37:25;17.10;99.90
32907;DHT22;19259;51.590;5.320;2022-07-29T07:39:53;17.20;99.90
32907;DHT22;19259;51.590;5.320;2022-07-29T07:42:20;17.40;99.90
32907;DHT22;19259;51.590;5.320;2022-07-29T07:44:48;17.60;99.90
32907;DHT22;19259;51.590;5.320;2022-07-29T07:47:16;17.70;99.90
32907;DHT22;19259;51.590;5.320;2022-07-29T07:49:46;17.70;99.90
32907;DHT22;19259;51.590;5.320;2022-07-29T07:52:15;17.70;99.90
32907;DHT22;19259;51.590;5.320;2022-07-29T07:54:43;17.70;99.90
32907;DHT22;19259;51.590;5.320;2022-07-29T07:57:11;17.80;99.90
32907;DHT22;19259;51.590;5.320;2022-07-29T07:59:40;18.10;99.90
32907;DHT22;19259;51.590;5.320;2022-07-29T08:02:08;18.40;99.90
32907;DHT22;19259;51.590;5.320;2022-07-29T08:04:39;18.50;99.90
32907;DHT22;19259;51.590;5.320;2022-07-29T08:07:07;18.60;99.90
32907;DHT22;19259;51.590;5.320;2022-07-29T08:09:35;18.70;99.90
32907;DHT22;19259;51.590;5.320;2022-07-29T08:12:03;18.90;99.90
32907;DHT22;19259;51.590;5.320;2022-07-29T08:14:32;19.10;99.90
32907;DHT22;19259;51.590;5.320;2022-07-29T08:17:00;19.10;99.90
32907;DHT22;19259;51.590;5.320;2022-07-29T08:19:28;19.10;99.90
32907;DHT22;19259;51.590;5.320;2022-07-29T08:21:55;19.20;99.90
32907;DHT22;19259;51.590;5.320;2022-07-29T08:24:27;19.30;99.90
32907;DHT22;19259;51.590;5.320;2022-07-29T08:27:14;19.40;99.90
32907;DHT22;19259;51.590;5.320;2022-07-29T08:29:41;19.60;99.90
32907;DHT22;19259;51.590;5.320;2022-07-29T08:32:09;19.60;99.90
32907;DHT22;19259;51.590;5.320;2022-07-29T08:34:36;19.70;99.90
32907;DHT22;19259;51.590;5.320;2022-07-29T08:37:04;19.70;99.90
32907;DHT22;19259;51.590;5.320;2022-07-29T08:39:31;20.00;99.90
32907;DHT22;19259;51.590;5.320;2022-07-29T08:41:59;20.10;99.90
32907;DHT22;19259;51.590;5.320;2022-07-29T08:44:26;20.10;99.90
32907;DHT22;19259;51.590;5.320;2022-07-29T08:46:55;20.00;99.90
32907;DHT22;19259;51.590;5.320;2022-07-29T08:49:22;20.20;99.90
32907;DHT22;19259;51.590;5.320;2022-07-29T08:51:50;20.40;99.90
32907;DHT22;19259;51.590;5.320;2022-07-29T08:54:18;20.40;99.90
32907;DHT22;19259;51.590;5.320;2022-07-29T08:56:49;20.30;99.90
32907;DHT22;19259;51.590;5.320;2022-07-29T08:59:19;20.30;99.90
32907;DHT22;19259;51.590;5.320;2022-07-29T09:01:48;20.70;99.90
32907;DHT22;19259;51.590;5.320;2022-07-29T09:04:18;20.80;99.90
32907;DHT22;19259;51.590;5.320;2022-07-29T09:06:49;20.70;99.90
32907;DHT22;19259;51.590;5.320;2022-07-29T09:09:17;20.70;99.90
32907;DHT22;19259;51.590;5.320;2022-07-29T09:11:45;20.70;99.90
32907;DHT22;19259;51.590;5.320;2022-07-29T09:14:13;21.00;99.90
32907;DHT22;19259;51.590;5.320;2022-07-29T09:16:50;21.00;99.90
32907;DHT22;19259;51.590;5.320;2022-07-29T09:19:33;21.10;99.90
32907;DHT22;19259;51.590;5.320;2022-07-29T09:21:58;21.20;99.90
32907;DHT22;19259;51.590;5.320;2022-07-29T09:24:36;21.30;99.90
32907;DHT22;19259;51.590;5.320;2022-07-29T09:27:10;21.50;99.90
32907;DHT22;19259;51.590;5.320;2022-07-29T09:29:38;21.80;99.90
32907;DHT22;19259;51.590;5.320;2022-07-29T09:32:08;22.00;99.90
32907;DHT22;19259;51.590;5.320;2022-07-29T09:34:37;21.90;99.90
32907;DHT22;19259;51.590;5.320;2022-07-29T09:37:04;22.20;99.90
32907;DHT22;19259;51.590;5.320;2022-07-29T09:39:37;22.40;99.90
32907;DHT22;19259;51.590;5.320;2022-07-29T09:42:07;22.20;99.90
32907;DHT22;19259;51.590;5.320;2022-07-29T09:44:48;22.00;99.90
32907;DHT22;19259;51.590;5.320;2022-07-29T09:47:19;21.80;99.90
32907;DHT22;19259;51.590;5.320;2022-07-29T09:49:56;21.90;99.90
32907;DHT22;19259;51.590;5.320;2022-07-29T09:52:28;22.10;99.90
32907;DHT22;19259;51.590;5.320;2022-07-29T09:55:07;22.30;99.90
32907;DHT22;19259;51.590;5.320;2022-07-29T09:57:35;22.50;99.90
32907;DHT22;19259;51.590;5.320;2022-07-29T10:00:15;22.40;99.90
32907;DHT22;19259;51.590;5.320;2022-07-29T10:02:44;22.20;99.90
32907;DHT22;19259;51.590;5.320;2022-07-29T10:05:24;22.50;99.90
32907;DHT22;19259;51.590;5.320;2022-07-29T10:07:54;22.30;99.90
32907;DHT22;19259;51.590;5.320;2022-07-29T10:10:23;22.10;99.90
32907;DHT22;19259;51.590;5.320;2022-07-29T10:13:12;22.20;99.90
32907;DHT22;19259;51.590;5.320;2022-07-29T10:15:41;22.60;99.90
32907;DHT22;19259;51.590;5.320;2022-07-29T10:18:12;22.60;99.90
32907;DHT22;19259;51.590;5.320;2022-07-29T10:20:41;22.60;99.90
32907;DHT22;19259;51.590;5.320;2022-07-29T10:23:09;22.60;99.90
32907;DHT22;19259;51.590;5.320;2022-07-29T10:25:37;22.60;99.90
32907;DHT22;19259;51.590;5.320;2022-07-29T10:28:06;22.40;99.90
32907;DHT22;19259;51.590;5.320;2022-07-29T10:30:35;22.60;99.90
32907;DHT22;19259;51.590;5.320;2022-07-29T10:36:02;22.70;99.90
32907;DHT22;19259;51.590;5.320;2022-07-29T10:38:43;22.40;99.90
32907;DHT22;19259;51.590;5.320;2022-07-29T10:41:33;22.60;99.90
32907;DHT22;19259;51.590;5.320;2022-07-29T10:44:16;22.90;99.90
32907;DHT22;19259;51.590;5.320;2022-07-29T10:46:43;23.00;99.90
32907;DHT22;19259;51.590;5.320;2022-07-29T10:49:21;22.80;99.90
32907;DHT22;19259;51.590;5.320;2022-07-29T11:02:40;23.00;99.90
32907;DHT22;19259;51.590;5.320;2022-07-29T11:05:16;22.90;99.90
32907;DHT22;19259;51.590;5.320;2022-07-29T11:10:29;23.00;99.90
32907;DHT22;19259;51.590;5.320;2022-07-29T11:12:57;23.10;99.90
32907;DHT22;19259;51.590;5.320;2022-07-29T11:15:24;23.40;99.90
32907;DHT22;19259;51.590;5.320;2022-07-29T11:20:41;23.60;99.90
32907;DHT22;19259;51.590;5.320;2022-07-29T11:23:23;23.30;99.90
32907;DHT22;19259;51.590;5.320;2022-07-29T11:29:03;23.30;99.90
32907;DHT22;19259;51.590;5.320;2022-07-29T11:31:39;23.40;99.90
32907;DHT22;19259;51.590;5.320;2022-07-29T11:34:30;23.80;99.90
32907;DHT22;19259;51.590;5.320;2022-07-29T11:39:45;23.80;99.90
32907;DHT22;19259;51.590;5.320;2022-07-29T11:50:26;23.60;99.90
32907;DHT22;19259;51.590;5.320;2022-07-29T11:52:47;23.70;99.90
32907;DHT22;19259;51.590;5.320;2022-07-29T11:55:17;23.90;99.90
32907;DHT22;19259;51.590;5.320;2022-07-29T11:57:53;24.20;99.90
32907;DHT22;19259;51.590;5.320;2022-07-29T12:00:26;24.50;99.90
32907;DHT22;19259;51.590;5.320;2022-07-29T12:02:55;24.30;99.90
32907;DHT22;19259;51.590;5.320;2022-07-29T12:05:36;24.00;99.90
32907;DHT22;19259;51.590;5.320;2022-07-29T12:08:18;23.90;99.90
32907;DHT22;19259;51.590;5.320;2022-07-29T12:10:48;23.70;99.90
32907;DHT22;19259;51.590;5.320;2022-07-29T12:16:04;23.80;99.90
32907;DHT22;19259;51.590;5.320;2022-07-29T12:18:32;24.00;99.90
32907;DHT22;19259;51.590;5.320;2022-07-29T12:21:01;24.00;99.90
32907;DHT22;19259;51.590;5.320;2022-07-29T12:23:33;24.00;99.90
32907;DHT22;19259;51.590;5.320;2022-07-29T12:26:05;23.90;99.90
32907;DHT22;19259;51.590;5.320;2022-07-29T12:28:37;24.00;99.90
32907;DHT22;19259;51.590;5.320;2022-07-29T12:31:05;24.10;99.90
32907;DHT22;19259;51.590;5.320;2022-07-29T12:33:34;24.10;99.90
32907;DHT22;19259;51.590;5.320;2022-07-29T12:36:02;23.90;99.90
32907;DHT22;19259;51.590;5.320;2022-07-29T12:38:30;24.00;99.90
32907;DHT22;19259;51.590;5.320;2022-07-29T12:40:58;24.00;99.90
32907;DHT22;19259;51.590;5.320;2022-07-29T12:43:26;24.40;99.90
32907;DHT22;19259;51.590;5.320;2022-07-29T12:45:55;24.80;99.90
32907;DHT22;19259;51.590;5.320;2022-07-29T12:48:41;24.80;99.90
32907;DHT22;19259;51.590;5.320;2022-07-29T12:51:10;24.70;99.90
32907;DHT22;19259;51.590;5.320;2022-07-29T12:53:39;24.60;99.90
32907;DHT22;19259;51.590;5.320;2022-07-29T12:56:14;24.80;99.90
32907;DHT22;19259;51.590;5.320;2022-07-29T12:58:40;24.90;99.90
32907;DHT22;19259;51.590;5.320;2022-07-29T13:01:15;25.30;99.90
32907;DHT22;19259;51.590;5.320;2022-07-29T13:03:47;25.20;99.90
32907;DHT22;19259;51.590;5.320;2022-07-29T13:06:29;25.20;99.90
32907;DHT22;19259;51.590;5.320;2022-07-29T13:09:05;25.30;99.90
32907;DHT22;19259;51.590;5.320;2022-07-29T13:11:36;25.50;99.90
32907;DHT22;19259;51.590;5.320;2022-07-29T13:14:04;25.60;99.90
32907;DHT22;19259;51.590;5.320;2022-07-29T13:16:31;25.80;99.90
32907;DHT22;19259;51.590;5.320;2022-07-29T13:19:11;25.80;99.90
32907;DHT22;19259;51.590;5.320;2022-07-29T13:21:39;26.00;99.90
32907;DHT22;19259;51.590;5.320;2022-07-29T13:24:07;25.80;99.90
32907;DHT22;19259;51.590;5.320;2022-07-29T13:26:39;25.20;99.90
32907;DHT22;19259;51.590;5.320;2022-07-29T13:29:05;25.10;99.90
32907;DHT22;19259;51.590;5.320;2022-07-29T13:31:33;25.00;99.90
32907;DHT22;19259;51.590;5.320;2022-07-29T13:34:01;25.20;99.90
32907;DHT22;19259;51.590;5.320;2022-07-29T13:36:28;25.10;99.90
32907;DHT22;19259;51.590;5.320;2022-07-29T13:38:56;25.20;99.90
32907;DHT22;19259;51.590;5.320;2022-07-29T13:41:25;25.30;99.90
32907;DHT22;19259;51.590;5.320;2022-07-29T13:43:53;25.50;99.90
32907;DHT22;19259;51.590;5.320;2022-07-29T13:46:20;25.50;99.90
32907;DHT22;19259;51.590;5.320;2022-07-29T13:48:48;25.30;99.90
32907;DHT22;19259;51.590;5.320;2022-07-29T13:51:17;25.10;99.90
32907;DHT22;19259;51.590;5.320;2022-07-29T13:53:44;24.90;99.90
32907;DHT22;19259;51.590;5.320;2022-07-29T13:56:12;25.10;99.90
32907;DHT22;19259;51.590;5.320;2022-07-29T13:58:39;25.20;99.90
32907;DHT22;19259;51.590;5.320;2022-07-29T14:01:07;25.20;99.90
32907;DHT22;19259;51.590;5.320;2022-07-29T14:03:35;25.10;99.90
32907;DHT22;19259;51.590;5.320;2022-07-29T14:06:04;25.20;99.90
32907;DHT22;19259;51.590;5.320;2022-07-29T14:08:32;25.40;99.90
32907;DHT22;19259;51.590;5.320;2022-07-29T14:10:59;25.50;99.90
32907;DHT22;19259;51.590;5.320;2022-07-29T14:13:27;25.40;99.90
32907;DHT22;19259;51.590;5.320;2022-07-29T14:15:54;25.10;99.90
32907;DHT22;19259;51.590;5.320;2022-07-29T14:18:22;25.10;99.90
32907;DHT22;19259;51.590;5.320;2022-07-29T14:20:50;25.10;99.90
32907;DHT22;19259;51.590;5.320;2022-07-29T14:23:18;25.00;99.90
32907;DHT22;19259;51.590;5.320;2022-07-29T14:25:45;25.00;99.90
32907;DHT22;19259;51.590;5.320;2022-07-29T14:28:13;25.20;99.90
32907;DHT22;19259;51.590;5.320;2022-07-29T14:30:41;25.20;99.90
32907;DHT22;19259;51.590;5.320;2022-07-29T14:33:09;25.00;99.90
32907;DHT22;19259;51.590;5.320;2022-07-29T14:35:36;25.20;99.90
32907;DHT22;19259;51.590;5.320;2022-07-29T14:38:04;25.40;99.90
32907;DHT22;19259;51.590;5.320;2022-07-29T14:40:31;25.60;99.90
32907;DHT22;19259;51.590;5.320;2022-07-29T14:42:59;25.50;99.90
32907;DHT22;19259;51.590;5.320;2022-07-29T14:45:27;25.40;99.90
32907;DHT22;19259;51.590;5.320;2022-07-29T14:47:55;25.20;99.90
32907;DHT22;19259;51.590;5.320;2022-07-29T14:50:23;25.30;99.90
32907;DHT22;19259;51.590;5.320;2022-07-29T14:52:52;25.30;99.90
32907;DHT22;19259;51.590;5.320;2022-07-29T14:55:20;25.30;99.90
32907;DHT22;19259;51.590;5.320;2022-07-29T14:57:49;25.50;99.90
32907;DHT22;19259;51.590;5.320;2022-07-29T15:00:18;25.40;99.90
32907;DHT22;19259;51.590;5.320;2022-07-29T15:02:47;25.50;99.90
32907;DHT22;19259;51.590;5.320;2022-07-29T15:05:15;25.50;99.90
32907;DHT22;19259;51.590;5.320;2022-07-29T15:07:43;25.50;99.90
32907;DHT22;19259;51.590;5.320;2022-07-29T15:10:10;25.40;99.90
32907;DHT22;19259;51.590;5.320;2022-07-29T15:12:38;25.50;99.90
32907;DHT22;19259;51.590;5.320;2022-07-29T15:15:07;25.50;99.90
32907;DHT22;19259;51.590;5.320;2022-07-29T15:17:35;25.40;99.90
32907;DHT22;19259;51.590;5.320;2022-07-29T15:20:03;25.20;99.90
32907;DHT22;19259;51.590;5.320;2022-07-29T15:22:31;25.20;99.90
32907;DHT22;19259;51.590;5.320;2022-07-29T15:24:58;25.20;99.90
32907;DHT22;19259;51.590;5.320;2022-07-29T15:27:29;25.10;99.90
32907;DHT22;19259;51.590;5.320;2022-07-29T15:29:57;25.20;99.90
32907;DHT22;19259;51.590;5.320;2022-07-29T15:32:24;25.40;99.90
32907;DHT22;19259;51.590;5.320;2022-07-29T15:34:52;25.50;98.80
32907;DHT22;19259;51.590;5.320;2022-07-29T15:37:19;25.30;99.00
32907;DHT22;19259;51.590;5.320;2022-07-29T15:39:52;25.40;99.90
32907;DHT22;19259;51.590;5.320;2022-07-29T15:42:16;25.30;99.20
32907;DHT22;19259;51.590;5.320;2022-07-29T15:44:44;25.60;99.90
32907;DHT22;19259;51.590;5.320;2022-07-29T15:47:11;25.50;99.90
32907;DHT22;19259;51.590;5.320;2022-07-29T15:49:40;25.40;99.10
32907;DHT22;19259;51.590;5.320;2022-07-29T15:52:09;25.60;99.90
32907;DHT22;19259;51.590;5.320;2022-07-29T15:54:38;25.50;99.90
32907;DHT22;19259;51.590;5.320;2022-07-29T15:57:07;25.60;99.90
32907;DHT22;19259;51.590;5.320;2022-07-29T15:59:34;25.60;99.90
32907;DHT22;19259;51.590;5.320;2022-07-29T16:02:03;25.30;99.30
32907;DHT22;19259;51.590;5.320;2022-07-29T16:04:31;25.40;98.30
32907;DHT22;19259;51.590;5.320;2022-07-29T16:07:18;25.20;99.90
32907;DHT22;19259;51.590;5.320;2022-07-29T16:09:45;25.10;99.70
32907;DHT22;19259;51.590;5.320;2022-07-29T16:12:13;25.20;98.80
32907;DHT22;19259;51.590;5.320;2022-07-29T16:14:41;25.00;99.30
32907;DHT22;19259;51.590;5.320;2022-07-29T16:17:10;25.00;99.30
32907;DHT22;19259;51.590;5.320;2022-07-29T16:19:38;24.90;97.90
32907;DHT22;19259;51.590;5.320;2022-07-29T16:22:06;25.00;99.90
32907;DHT22;19259;51.590;5.320;2022-07-29T16:24:33;25.00;99.90
32907;DHT22;19259;51.590;5.320;2022-07-29T16:27:01;25.00;99.90
32907;DHT22;19259;51.590;5.320;2022-07-29T16:29:28;25.00;99.80
32907;DHT22;19259;51.590;5.320;2022-07-29T16:31:56;25.00;99.90
32907;DHT22;19259;51.590;5.320;2022-07-29T16:34:23;25.00;99.90